sensor_id;sensor_type;location;lat;lon;timestamp;pressure;altitude;pressure_sealevel;temperature;humidity
48874;BME280;35220;46.204;5.220;2022-09-09T00:02:02;98537.84;;;19.93;61.02
48874;BME280;35220;46.204;5.220;2022-09-09T00:07:21;98532.25;;;19.94;61.27
48874;BME280;35220;46.204;5.220;2022-09-09T00:12:37;98535.53;;;20.00;60.62
48874;BME280;35220;46.204;5.220;2022-09-09T00:17:48;98528.22;;;20.06;60.19
48874;BME280;35220;46.204;5.220;2022-09-09T00:22:59;98531.66;;;20.06;59.83
48874;BME280;35220;46.204;5.220;2022-09-09T00:28:12;98519.19;;;20.07;59.89
48874;BME280;35220;46.204;5.220;2022-09-09T00:33:18;98522.13;;;20.05;60.02
48874;BME280;35220;46.204;5.220;2022-09-09T00:38:26;98517.66;;;20.06;59.74
48874;BME280;35220;46.204;5.220;2022-09-09T00:43:34;98524.47;;;19.98;60.40
48874;BME280;35220;46.204;5.220;2022-09-09T00:49:45;98513.13;;;19.98;60.01
48874;BME280;35220;46.204;5.220;2022-09-09T01:04:31;98510.81;;;19.87;60.19
48874;BME280;35220;46.204;5.220;2022-09-09T01:09:45;98510.34;;;19.85;60.22
48874;BME280;35220;46.204;5.220;2022-09-09T01:15:40;98503.03;;;19.82;60.15
48874;BME280;35220;46.204;5.220;2022-09-09T01:20:38;98510.03;;;19.78;60.44
48874;BME280;35220;46.204;5.220;2022-09-09T01:26:05;98508.63;;;19.72;60.65
48874;BME280;35220;46.204;5.220;2022-09-09T01:31:11;98518.88;;;19.73;60.32
48874;BME280;35220;46.204;5.220;2022-09-09T01:36:42;98510.91;;;19.65;61.18
48874;BME280;35220;46.204;5.220;2022-09-09T01:41:44;98517.47;;;19.67;60.54
48874;BME280;35220;46.204;5.220;2022-09-09T01:46:46;98521.03;;;19.63;60.87
48874;BME280;35220;46.204;5.220;2022-09-09T01:52:05;98531.16;;;19.69;60.97
48874;BME280;35220;46.204;5.220;2022-09-09T01:57:27;98525.25;;;19.64;60.80
48874;BME280;35220;46.204;5.220;2022-09-09T02:07:42;98532.09;;;19.82;60.28
48874;BME280;35220;46.204;5.220;2022-09-09T02:13:04;98529.47;;;19.82;60.02
48874;BME280;35220;46.204;5.220;2022-09-09T02:18:08;98522.94;;;19.88;60.00
48874;BME280;35220;46.204;5.220;2022-09-09T02:23:11;98526.50;;;19.92;60.00
48874;BME280;35220;46.204;5.220;2022-09-09T02:28:14;98518.56;;;19.92;60.21
48874;BME280;35220;46.204;5.220;2022-09-09T02:33:16;98530.09;;;19.79;60.62
48874;BME280;35220;46.204;5.220;2022-09-09T02:38:17;98522.63;;;19.81;60.37
48874;BME280;35220;46.204;5.220;2022-09-09T02:43:19;98527.13;;;19.72;60.62
48874;BME280;35220;46.204;5.220;2022-09-09T02:48:30;98526.63;;;19.61;60.80
48874;BME280;35220;46.204;5.220;2022-09-09T02:53:49;98533.78;;;19.61;60.75
48874;BME280;35220;46.204;5.220;2022-09-09T02:58:54;98533.91;;;19.47;61.34
48874;BME280;35220;46.204;5.220;2022-09-09T03:03:54;98535.63;;;19.43;61.13
48874;BME280;35220;46.204;5.220;2022-09-09T03:08:55;98544.28;;;19.26;62.26
48874;BME280;35220;46.204;5.220;2022-09-09T03:13:56;98542.00;;;19.33;61.51
48874;BME280;35220;46.204;5.220;2022-09-09T03:18:56;98543.88;;;18.92;63.26
48874;BME280;35220;46.204;5.220;2022-09-09T03:23:57;98542.44;;;18.86;63.29
48874;BME280;35220;46.204;5.220;2022-09-09T03:28:57;98542.50;;;19.04;62.57
48874;BME280;35220;46.204;5.220;2022-09-09T03:34:00;98537.50;;;18.62;64.40
48874;BME280;35220;46.204;5.220;2022-09-09T03:39:00;98540.81;;;18.45;65.02
48874;BME280;35220;46.204;5.220;2022-09-09T03:44:02;98538.34;;;18.49;64.48
48874;BME280;35220;46.204;5.220;2022-09-09T03:49:03;98536.97;;;18.51;64.25
48874;BME280;35220;46.204;5.220;2022-09-09T03:54:04;98540.03;;;18.45;64.61
48874;BME280;35220;46.204;5.220;2022-09-09T03:59:08;98547.84;;;18.50;64.44
48874;BME280;35220;46.204;5.220;2022-09-09T04:04:11;98549.16;;;18.38;64.76
48874;BME280;35220;46.204;5.220;2022-09-09T04:09:12;98559.47;;;18.26;65.40
48874;BME280;35220;46.204;5.220;2022-09-09T04:14:13;98560.13;;;18.32;64.73
48874;BME280;35220;46.204;5.220;2022-09-09T04:19:13;98559.59;;;18.21;64.97
48874;BME280;35220;46.204;5.220;2022-09-09T04:24:14;98554.56;;;18.11;66.06
48874;BME280;35220;46.204;5.220;2022-09-09T04:29:16;98558.63;;;17.80;67.44
48874;BME280;35220;46.204;5.220;2022-09-09T04:34:16;98564.47;;;17.77;67.36
48874;BME280;35220;46.204;5.220;2022-09-09T04:39:17;98568.19;;;17.76;66.82
48874;BME280;35220;46.204;5.220;2022-09-09T04:44:17;98567.50;;;17.71;67.03
48874;BME280;35220;46.204;5.220;2022-09-09T04:49:18;98570.03;;;17.76;66.85
48874;BME280;35220;46.204;5.220;2022-09-09T04:54:18;98573.28;;;17.86;66.34
48874;BME280;35220;46.204;5.220;2022-09-09T04:59:19;98573.53;;;17.85;66.69
48874;BME280;35220;46.204;5.220;2022-09-09T05:04:19;98576.69;;;17.87;66.53
48874;BME280;35220;46.204;5.220;2022-09-09T05:09:19;98577.56;;;17.96;66.10
48874;BME280;35220;46.204;5.220;2022-09-09T05:14:20;98585.22;;;18.07;66.00
48874;BME280;35220;46.204;5.220;2022-09-09T05:19:20;98572.72;;;18.12;65.87
48874;BME280;35220;46.204;5.220;2022-09-09T05:24:21;98577.56;;;18.19;65.57
48874;BME280;35220;46.204;5.220;2022-09-09T05:29:23;98587.41;;;18.27;65.76
48874;BME280;35220;46.204;5.220;2022-09-09T05:34:23;98600.53;;;18.41;65.47
48874;BME280;35220;46.204;5.220;2022-09-09T05:39:23;98598.03;;;18.58;65.43
48874;BME280;35220;46.204;5.220;2022-09-09T05:44:24;98604.28;;;18.71;65.26
48874;BME280;35220;46.204;5.220;2022-09-09T05:49:27;98612.47;;;18.84;65.05
48874;BME280;35220;46.204;5.220;2022-09-09T05:54:28;98621.38;;;18.74;65.43
48874;BME280;35220;46.204;5.220;2022-09-09T05:59:28;98625.19;;;18.59;65.61
48874;BME280;35220;46.204;5.220;2022-09-09T06:04:29;98628.75;;;18.63;65.64
48874;BME280;35220;46.204;5.220;2022-09-09T06:09:30;98625.47;;;18.57;65.31
48874;BME280;35220;46.204;5.220;2022-09-09T06:14:31;98632.50;;;18.62;65.28
48874;BME280;35220;46.204;5.220;2022-09-09T06:19:35;98635.44;;;18.60;65.13
48874;BME280;35220;46.204;5.220;2022-09-09T06:24:35;98649.28;;;18.66;65.06
48874;BME280;35220;46.204;5.220;2022-09-09T06:29:36;98649.34;;;18.75;64.53
48874;BME280;35220;46.204;5.220;2022-09-09T06:34:36;98652.53;;;18.86;64.25
48874;BME280;35220;46.204;5.220;2022-09-09T06:39:37;98652.88;;;18.93;64.20
48874;BME280;35220;46.204;5.220;2022-09-09T06:44:37;98648.72;;;19.00;64.11
48874;BME280;35220;46.204;5.220;2022-09-09T06:49:37;98657.16;;;19.11;63.89
48874;BME280;35220;46.204;5.220;2022-09-09T06:54:38;98661.91;;;19.23;63.67
48874;BME280;35220;46.204;5.220;2022-09-09T06:59:38;98660.09;;;19.41;63.13
48874;BME280;35220;46.204;5.220;2022-09-09T07:04:39;98661.63;;;19.73;62.54
48874;BME280;35220;46.204;5.220;2022-09-09T07:09:39;98663.09;;;19.97;61.96
48874;BME280;35220;46.204;5.220;2022-09-09T07:14:40;98670.09;;;20.19;61.62
48874;BME280;35220;46.204;5.220;2022-09-09T07:19:40;98673.53;;;20.28;60.90
48874;BME280;35220;46.204;5.220;2022-09-09T07:24:41;98675.25;;;20.42;61.07
48874;BME280;35220;46.204;5.220;2022-09-09T07:29:41;98678.22;;;20.49;59.83
48874;BME280;35220;46.204;5.220;2022-09-09T07:34:42;98675.25;;;20.59;60.05
48874;BME280;35220;46.204;5.220;2022-09-09T07:39:43;98677.41;;;20.57;59.59
48874;BME280;35220;46.204;5.220;2022-09-09T07:44:44;98667.31;;;20.77;59.32
48874;BME280;35220;46.204;5.220;2022-09-09T07:49:44;98671.97;;;20.80;58.67
48874;BME280;35220;46.204;5.220;2022-09-09T07:54:46;98677.88;;;20.85;59.18
48874;BME280;35220;46.204;5.220;2022-09-09T07:59:46;98687.53;;;20.90;58.72
48874;BME280;35220;46.204;5.220;2022-09-09T08:04:47;98687.41;;;20.86;58.43
48874;BME280;35220;46.204;5.220;2022-09-09T08:09:47;98694.22;;;20.96;58.19
48874;BME280;35220;46.204;5.220;2022-09-09T08:14:48;98692.38;;;20.79;57.53
48874;BME280;35220;46.204;5.220;2022-09-09T08:19:48;98697.38;;;20.63;57.00
48874;BME280;35220;46.204;5.220;2022-09-09T08:24:49;98691.56;;;20.96;56.55
48874;BME280;35220;46.204;5.220;2022-09-09T08:29:49;98689.16;;;21.21;55.88
48874;BME280;35220;46.204;5.220;2022-09-09T08:34:49;98685.97;;;21.45;54.57
48874;BME280;35220;46.204;5.220;2022-09-09T08:39:51;98694.00;;;21.75;53.63
48874;BME280;35220;46.204;5.220;2022-09-09T08:50:34;98704.25;;;21.47;49.94
48874;BME280;35220;46.204;5.220;2022-09-09T09:11:42;98703.94;;;21.39;48.08
48874;BME280;35220;46.204;5.220;2022-09-09T09:16:58;98701.53;;;20.99;47.99
48874;BME280;35220;46.204;5.220;2022-09-09T09:27:40;98696.00;;;21.48;47.40
48874;BME280;35220;46.204;5.220;2022-09-09T09:32:53;98697.88;;;21.77;46.55
48874;BME280;35220;46.204;5.220;2022-09-09T09:37:54;98698.59;;;21.57;47.94
48874;BME280;35220;46.204;5.220;2022-09-09T09:42:57;98694.50;;;21.68;48.02
48874;BME280;35220;46.204;5.220;2022-09-09T09:48:04;98688.72;;;21.96;48.06
48874;BME280;35220;46.204;5.220;2022-09-09T09:53:16;98688.59;;;21.92;47.70
48874;BME280;35220;46.204;5.220;2022-09-09T09:58:19;98683.69;;;21.73;46.86
48874;BME280;35220;46.204;5.220;2022-09-09T10:03:26;98687.78;;;21.92;46.16
48874;BME280;35220;46.204;5.220;2022-09-09T10:08:28;98684.81;;;21.63;46.37
48874;BME280;35220;46.204;5.220;2022-09-09T10:13:47;98685.34;;;21.57;46.03
48874;BME280;35220;46.204;5.220;2022-09-09T10:19:00;98692.38;;;21.53;46.67
48874;BME280;35220;46.204;5.220;2022-09-09T10:35:01;98689.09;;;21.56;46.68
48874;BME280;35220;46.204;5.220;2022-09-09T10:40:23;98684.34;;;21.70;46.23
48874;BME280;35220;46.204;5.220;2022-09-09T10:46:23;98685.88;;;22.22;45.61
48874;BME280;35220;46.204;5.220;2022-09-09T10:56:11;98669.34;;;22.46;45.68
48874;BME280;35220;46.204;5.220;2022-09-09T11:01:18;98670.66;;;22.73;44.03
48874;BME280;35220;46.204;5.220;2022-09-09T11:06:22;98667.91;;;22.49;39.74
48874;BME280;35220;46.204;5.220;2022-09-09T11:16:57;98656.50;;;22.82;37.42
48874;BME280;35220;46.204;5.220;2022-09-09T11:22:26;98652.28;;;22.81;37.00
48874;BME280;35220;46.204;5.220;2022-09-09T11:27:37;98653.97;;;23.19;36.71
48874;BME280;35220;46.204;5.220;2022-09-09T11:43:23;98659.81;;;23.12;38.00
48874;BME280;35220;46.204;5.220;2022-09-09T11:48:33;98668.69;;;23.53;37.40
48874;BME280;35220;46.204;5.220;2022-09-09T11:53:35;98658.28;;;23.35;35.43
48874;BME280;35220;46.204;5.220;2022-09-09T11:58:41;98660.72;;;23.65;35.04
48874;BME280;35220;46.204;5.220;2022-09-09T12:03:46;98653.16;;;23.80;34.77
48874;BME280;35220;46.204;5.220;2022-09-09T12:08:54;98648.94;;;23.91;33.75
48874;BME280;35220;46.204;5.220;2022-09-09T12:13:59;98655.38;;;23.78;33.85
48874;BME280;35220;46.204;5.220;2022-09-09T12:19:19;98658.22;;;24.09;32.73
48874;BME280;35220;46.204;5.220;2022-09-09T12:24:37;98652.53;;;24.23;32.81
48874;BME280;35220;46.204;5.220;2022-09-09T12:30:08;98655.81;;;24.04;32.83
48874;BME280;35220;46.204;5.220;2022-09-09T12:35:13;98655.03;;;24.04;32.95
48874;BME280;35220;46.204;5.220;2022-09-09T12:45:25;98662.94;;;24.28;33.73
48874;BME280;35220;46.204;5.220;2022-09-09T12:50:29;98676.03;;;24.21;33.41
48874;BME280;35220;46.204;5.220;2022-09-09T12:55:34;98654.00;;;26.28;31.07
48874;BME280;35220;46.204;5.220;2022-09-09T13:00:35;98653.66;;;26.10;31.25
48874;BME280;35220;46.204;5.220;2022-09-09T13:05:38;98653.22;;;25.56;31.39
48874;BME280;35220;46.204;5.220;2022-09-09T13:10:46;98643.94;;;24.86;31.69
48874;BME280;35220;46.204;5.220;2022-09-09T13:15:56;98638.09;;;25.60;30.89
48874;BME280;35220;46.204;5.220;2022-09-09T13:20:57;98640.00;;;25.12;31.84
48874;BME280;35220;46.204;5.220;2022-09-09T13:26:00;98642.03;;;24.71;33.61
48874;BME280;35220;46.204;5.220;2022-09-09T13:31:03;98636.00;;;26.87;31.53
48874;BME280;35220;46.204;5.220;2022-09-09T13:36:09;98640.06;;;25.64;33.37
48874;BME280;35220;46.204;5.220;2022-09-09T13:41:10;98641.50;;;25.77;34.25
48874;BME280;35220;46.204;5.220;2022-09-09T13:46:32;98636.56;;;25.95;33.68
48874;BME280;35220;46.204;5.220;2022-09-09T13:51:34;98639.28;;;25.98;34.62
48874;BME280;35220;46.204;5.220;2022-09-09T13:56:38;98625.28;;;27.60;31.95
48874;BME280;35220;46.204;5.220;2022-09-09T14:01:39;98617.75;;;26.69;33.93
48874;BME280;35220;46.204;5.220;2022-09-09T14:06:41;98605.22;;;30.04;29.29
48874;BME280;35220;46.204;5.220;2022-09-09T14:11:43;98595.66;;;31.72;27.70
48874;BME280;35220;46.204;5.220;2022-09-09T14:16:44;98591.00;;;31.79;27.51
48874;BME280;35220;46.204;5.220;2022-09-09T14:21:44;98583.63;;;32.05;26.71
48874;BME280;35220;46.204;5.220;2022-09-09T14:26:45;98586.56;;;33.26;25.47
48874;BME280;35220;46.204;5.220;2022-09-09T14:31:45;98581.59;;;33.90;24.55
48874;BME280;35220;46.204;5.220;2022-09-09T14:36:46;98586.13;;;34.27;23.90
48874;BME280;35220;46.204;5.220;2022-09-09T14:41:46;98589.13;;;32.95;24.04
48874;BME280;35220;46.204;5.220;2022-09-09T14:46:47;98590.81;;;33.62;22.99
48874;BME280;35220;46.204;5.220;2022-09-09T14:51:50;98576.94;;;33.60;22.14
48874;BME280;35220;46.204;5.220;2022-09-09T14:56:50;98571.31;;;33.43;22.91
48874;BME280;35220;46.204;5.220;2022-09-09T15:01:51;98583.47;;;32.83;22.68
48874;BME280;35220;46.204;5.220;2022-09-09T15:06:51;98579.84;;;29.87;24.96
48874;BME280;35220;46.204;5.220;2022-09-09T15:11:53;98570.38;;;28.82;26.43
48874;BME280;35220;46.204;5.220;2022-09-09T15:16:53;98580.00;;;28.45;26.34
48874;BME280;35220;46.204;5.220;2022-09-09T15:21:54;98569.50;;;27.62;27.77
48874;BME280;35220;46.204;5.220;2022-09-09T15:26:54;98574.06;;;26.39;29.54
48874;BME280;35220;46.204;5.220;2022-09-09T15:31:55;98569.13;;;27.10;28.91
48874;BME280;35220;46.204;5.220;2022-09-09T15:36:56;98560.91;;;27.49;28.76
48874;BME280;35220;46.204;5.220;2022-09-09T15:41:56;98550.84;;;27.69;28.36
48874;BME280;35220;46.204;5.220;2022-09-09T15:46:56;98553.59;;;26.92;29.34
48874;BME280;35220;46.204;5.220;2022-09-09T15:51:59;98548.00;;;27.01;29.22
48874;BME280;35220;46.204;5.220;2022-09-09T15:57:03;98544.28;;;26.36;29.91
48874;BME280;35220;46.204;5.220;2022-09-09T16:02:04;98541.88;;;25.18;31.90
48874;BME280;35220;46.204;5.220;2022-09-09T16:07:05;98542.00;;;24.90;32.27
48874;BME280;35220;46.204;5.220;2022-09-09T16:12:06;98546.19;;;24.75;32.92
48874;BME280;35220;46.204;5.220;2022-09-09T16:17:07;98546.97;;;24.59;33.27
48874;BME280;35220;46.204;5.220;2022-09-09T16:22:07;98546.41;;;24.38;33.89
48874;BME280;35220;46.204;5.220;2022-09-09T16:27:08;98560.72;;;24.17;34.41
48874;BME280;35220;46.204;5.220;2022-09-09T16:32:09;98568.69;;;23.89;35.88
48874;BME280;35220;46.204;5.220;2022-09-09T16:37:13;98576.03;;;23.67;36.22
48874;BME280;35220;46.204;5.220;2022-09-09T16:42:13;98589.81;;;23.45;36.75
48874;BME280;35220;46.204;5.220;2022-09-09T16:47:14;98600.22;;;23.38;37.71
48874;BME280;35220;46.204;5.220;2022-09-09T16:52:14;98595.69;;;23.13;37.97
48874;BME280;35220;46.204;5.220;2022-09-09T16:57:15;98592.03;;;23.18;37.87
48874;BME280;35220;46.204;5.220;2022-09-09T17:02:15;98629.19;;;22.93;39.23
48874;BME280;35220;46.204;5.220;2022-09-09T17:07:15;98652.81;;;21.98;44.54
48874;BME280;35220;46.204;5.220;2022-09-09T17:12:16;98693.09;;;21.15;49.35
48874;BME280;35220;46.204;5.220;2022-09-09T17:17:17;98693.75;;;20.94;49.20
48874;BME280;35220;46.204;5.220;2022-09-09T17:22:18;98701.88;;;20.45;53.91
48874;BME280;35220;46.204;5.220;2022-09-09T17:27:20;98706.31;;;19.92;55.19
48874;BME280;35220;46.204;5.220;2022-09-09T17:32:20;98713.16;;;19.85;55.32
48874;BME280;35220;46.204;5.220;2022-09-09T17:37:21;98709.50;;;19.72;55.90
48874;BME280;35220;46.204;5.220;2022-09-09T17:42:21;98706.66;;;19.60;56.88
48874;BME280;35220;46.204;5.220;2022-09-09T17:47:21;98695.28;;;19.59;57.30
48874;BME280;35220;46.204;5.220;2022-09-09T17:52:22;98697.03;;;19.64;57.57
48874;BME280;35220;46.204;5.220;2022-09-09T17:57:23;98694.00;;;19.88;56.68
48874;BME280;35220;46.204;5.220;2022-09-09T18:02:23;98708.84;;;20.06;56.33
48874;BME280;35220;46.204;5.220;2022-09-09T18:07:23;98718.81;;;20.09;56.44
48874;BME280;35220;46.204;5.220;2022-09-09T18:12:24;98717.88;;;20.14;56.22
48874;BME280;35220;46.204;5.220;2022-09-09T18:17:24;98715.56;;;20.30;56.00
48874;BME280;35220;46.204;5.220;2022-09-09T18:22:27;98730.97;;;20.28;56.48
48874;BME280;35220;46.204;5.220;2022-09-09T18:27:27;98738.59;;;20.29;56.47
48874;BME280;35220;46.204;5.220;2022-09-09T18:32:28;98749.97;;;20.39;56.26
48874;BME280;35220;46.204;5.220;2022-09-09T18:37:29;98756.03;;;20.48;56.26
48874;BME280;35220;46.204;5.220;2022-09-09T18:42:33;98775.84;;;20.50;56.38
48874;BME280;35220;46.204;5.220;2022-09-09T18:47:34;98787.34;;;20.55;56.24
48874;BME280;35220;46.204;5.220;2022-09-09T18:52:34;98781.44;;;20.58;56.30
48874;BME280;35220;46.204;5.220;2022-09-09T18:57:35;98791.91;;;20.63;56.56
48874;BME280;35220;46.204;5.220;2022-09-09T19:02:37;98789.75;;;20.65;56.81
48874;BME280;35220;46.204;5.220;2022-09-09T19:07:38;98783.03;;;20.67;56.77
48874;BME280;35220;46.204;5.220;2022-09-09T19:12:40;98777.59;;;20.73;56.97
48874;BME280;35220;46.204;5.220;2022-09-09T19:17:41;98779.63;;;20.76;56.79
48874;BME280;35220;46.204;5.220;2022-09-09T19:22:41;98776.97;;;20.76;56.97
48874;BME280;35220;46.204;5.220;2022-09-09T19:27:41;98798.91;;;20.76;57.41
48874;BME280;35220;46.204;5.220;2022-09-09T19:32:42;98805.63;;;20.74;57.51
48874;BME280;35220;46.204;5.220;2022-09-09T19:37:43;98812.31;;;20.71;57.40
48874;BME280;35220;46.204;5.220;2022-09-09T19:42:43;98806.84;;;20.67;57.57
48874;BME280;35220;46.204;5.220;2022-09-09T19:47:43;98808.81;;;20.44;58.87
48874;BME280;35220;46.204;5.220;2022-09-09T19:52:44;98813.22;;;20.09;60.88
48874;BME280;35220;46.204;5.220;2022-09-09T19:57:44;98814.91;;;19.96;60.58
48874;BME280;35220;46.204;5.220;2022-09-09T20:02:45;98824.72;;;19.96;60.47
48874;BME280;35220;46.204;5.220;2022-09-09T20:07:45;98830.59;;;19.92;60.12
48874;BME280;35220;46.204;5.220;2022-09-09T20:12:45;98824.63;;;19.78;60.74
48874;BME280;35220;46.204;5.220;2022-09-09T20:17:46;98827.13;;;19.83;61.26
48874;BME280;35220;46.204;5.220;2022-09-09T20:22:46;98826.72;;;19.67;61.13
48874;BME280;35220;46.204;5.220;2022-09-09T20:27:46;98824.03;;;19.59;61.51
48874;BME280;35220;46.204;5.220;2022-09-09T20:32:47;98822.63;;;19.61;61.47
48874;BME280;35220;46.204;5.220;2022-09-09T20:37:48;98824.19;;;19.62;61.70
48874;BME280;35220;46.204;5.220;2022-09-09T20:42:49;98817.34;;;19.61;61.22
48874;BME280;35220;46.204;5.220;2022-09-09T20:47:50;98823.78;;;19.46;62.58
48874;BME280;35220;46.204;5.220;2022-09-09T20:52:51;98830.53;;;19.52;62.38
48874;BME280;35220;46.204;5.220;2022-09-09T20:57:51;98834.53;;;19.50;62.24
48874;BME280;35220;46.204;5.220;2022-09-09T21:02:51;98840.34;;;19.61;60.98
48874;BME280;35220;46.204;5.220;2022-09-09T21:07:52;98834.72;;;19.53;61.14
48874;BME280;35220;46.204;5.220;2022-09-09T21:12:52;98850.56;;;19.53;60.88
48874;BME280;35220;46.204;5.220;2022-09-09T21:17:53;98856.97;;;19.61;60.86
48874;BME280;35220;46.204;5.220;2022-09-09T21:22:53;98865.09;;;19.65;60.52
48874;BME280;35220;46.204;5.220;2022-09-09T21:27:54;98866.38;;;19.45;61.21
48874;BME280;35220;46.204;5.220;2022-09-09T21:32:54;98872.56;;;19.40;61.39
48874;BME280;35220;46.204;5.220;2022-09-09T21:37:55;98863.78;;;19.53;60.70
48874;BME280;35220;46.204;5.220;2022-09-09T21:42:55;98870.69;;;19.63;60.26
48874;BME280;35220;46.204;5.220;2022-09-09T21:47:56;98864.19;;;19.69;60.22
48874;BME280;35220;46.204;5.220;2022-09-09T21:52:56;98868.25;;;19.44;61.18
48874;BME280;35220;46.204;5.220;2022-09-09T21:57:56;98864.25;;;19.55;60.52
48874;BME280;35220;46.204;5.220;2022-09-09T22:02:58;98872.44;;;19.68;60.40
48874;BME280;35220;46.204;5.220;2022-09-09T22:07:58;98868.00;;;19.77;60.62
48874;BME280;35220;46.204;5.220;2022-09-09T22:12:59;98872.84;;;19.84;60.64
48874;BME280;35220;46.204;5.220;2022-09-09T22:18:00;98869.91;;;19.85;61.05
48874;BME280;35220;46.204;5.220;2022-09-09T22:23:03;98872.69;;;19.80;61.59
48874;BME280;35220;46.204;5.220;2022-09-09T22:28:05;98878.75;;;19.81;61.70
48874;BME280;35220;46.204;5.220;2022-09-09T22:33:06;98878.09;;;19.75;62.07
48874;BME280;35220;46.204;5.220;2022-09-09T22:38:09;98874.47;;;19.71;62.27
48874;BME280;35220;46.204;5.220;2022-09-09T22:43:15;98863.59;;;19.72;63.10
48874;BME280;35220;46.204;5.220;2022-09-09T22:48:16;98867.72;;;19.65;62.61
48874;BME280;35220;46.204;5.220;2022-09-09T22:53:17;98867.56;;;19.61;62.61
48874;BME280;35220;46.204;5.220;2022-09-09T22:58:17;98877.28;;;19.52;63.05
48874;BME280;35220;46.204;5.220;2022-09-09T23:03:18;98883.63;;;19.42;62.96
48874;BME280;35220;46.204;5.220;2022-09-09T23:08:21;98873.69;;;19.48;62.71
48874;BME280;35220;46.204;5.220;2022-09-09T23:13:22;98875.81;;;19.37;62.83
48874;BME280;35220;46.204;5.220;2022-09-09T23:18:23;98877.31;;;19.29;63.49
48874;BME280;35220;46.204;5.220;2022-09-09T23:23:29;98875.25;;;19.26;63.36
48874;BME280;35220;46.204;5.220;2022-09-09T23:28:33;98886.19;;;19.33;63.06
48874;BME280;35220;46.204;5.220;2022-09-09T23:33:35;98885.28;;;19.38;62.45
48874;BME280;35220;46.204;5.220;2022-09-09T23:38:37;98890.09;;;19.36;62.67
48874;BME280;35220;46.204;5.220;2022-09-09T23:43:38;98882.09;;;19.27;63.09
48874;BME280;35220;46.204;5.220;2022-09-09T23:48:40;98878.16;;;19.38;62.61
48874;BME280;35220;46.204;5.220;2022-09-09T23:53:40;98879.16;;;19.29;63.01
48874;BME280;35220;46.204;5.220;2022-09-09T23:58:41;98879.34;;;18.96;64.02
